Time;durP1;ratioP1;P1;durP2;ratioP2;P2;SDS_P1;SDS_P2;PMS_P1;PMS_P2;Temp;Humidity;BMP_temperature;BMP_pressure;BME280_temperature;BME280_humidity;BME280_pressure;Samples;Min_cycle;Max_cycle;Signal;HPM_P1;HPM_P2
2022/05/24 00:01:15;;;;;;;5.70;2.70;;;17.00;99.90;;;;;;4990310;28;20450;-56
2022/05/24 00:03:41;;;;;;;5.70;2.70;;;17.00;99.90;;;;;;4990364;28;20414;-57
2022/05/24 00:06:07;;;;;;;5.60;2.40;;;17.10;99.90;;;;;;4990755;28;20455;-57
2022/05/24 00:08:33;;;;;;;6.75;2.50;;;17.10;99.90;;;;;;4988327;28;20401;-53
2022/05/24 00:10:59;;;;;;;5.30;2.60;;;17.10;99.90;;;;;;4991027;28;20518;-57
2022/05/24 00:13:25;;;;;;;6.37;2.50;;;17.10;99.90;;;;;;4990875;28;20829;-59
2022/05/24 00:15:51;;;;;;;5.32;2.50;;;17.10;99.90;;;;;;4990491;28;21035;-57
2022/05/24 00:18:23;;;;;;;5.50;2.60;;;16.80;99.90;;;;;;4990656;28;20399;-57
2022/05/24 00:20:51;;;;;;;5.60;2.80;;;16.80;99.90;;;;;;4990028;28;20450;-56
2022/05/24 00:23:18;;;;;;;6.35;3.10;;;16.80;99.90;;;;;;4991130;28;20398;-56
2022/05/24 00:25:46;;;;;;;7.40;3.40;;;16.60;99.90;;;;;;4990127;28;20390;-56
2022/05/24 00:28:14;;;;;;;7.53;3.80;;;16.60;99.90;;;;;;4990845;28;20565;-57
2022/05/24 00:30:41;;;;;;;7.82;3.40;;;16.70;99.90;;;;;;4990085;28;20752;-56
2022/05/24 00:33:06;;;;;;;8.82;3.75;;;16.70;99.90;;;;;;4989981;28;20402;-56
2022/05/24 00:35:33;;;;;;;7.03;4.00;;;16.80;99.90;;;;;;4989959;28;21084;-54
2022/05/24 00:37:58;;;;;;;7.43;4.00;;;16.90;99.90;;;;;;4990287;28;20464;-56
2022/05/24 00:40:30;;;;;;;7.65;4.20;;;16.70;99.90;;;;;;4990235;28;20434;-56
2022/05/24 00:42:55;;;;;;;6.68;4.15;;;16.50;99.90;;;;;;4987863;28;20892;-56
2022/05/24 00:45:31;;;;;;;7.77;4.20;;;16.60;99.90;;;;;;4990791;28;20395;-56
2022/05/24 00:48:09;;;;;;;6.50;4.30;;;16.60;99.90;;;;;;4987595;28;20405;-56
2022/05/24 00:50:44;;;;;;;7.20;3.93;;;16.60;99.90;;;;;;4986997;28;20417;-53
2022/05/24 00:53:24;;;;;;;10.03;4.97;;;16.50;99.90;;;;;;4989838;28;20446;-56
2022/05/24 00:55:57;;;;;;;7.20;4.30;;;16.60;99.90;;;;;;4989777;28;20397;-56
2022/05/24 00:58:35;;;;;;;8.05;4.60;;;16.60;99.90;;;;;;4990533;28;20409;-57
2022/05/24 01:01:06;;;;;;;7.63;4.60;;;16.70;99.90;;;;;;4988812;28;20418;-60
2022/05/24 01:03:32;;;;;;;8.57;5.30;;;16.80;99.90;;;;;;4989382;28;20431;-55
2022/05/24 01:05:57;;;;;;;8.70;5.13;;;16.80;99.90;;;;;;4989886;28;20422;-57
2022/05/24 01:08:23;;;;;;;7.15;4.40;;;16.90;99.90;;;;;;4990207;28;20445;-57
2022/05/24 01:10:51;;;;;;;8.32;5.10;;;16.90;99.90;;;;;;4990857;28;20415;-57
2022/05/24 01:13:22;;;;;;;7.90;4.95;;;17.00;99.90;;;;;;4989978;28;20872;-58
2022/05/24 01:15:48;;;;;;;8.00;4.60;;;17.10;99.90;;;;;;4989125;28;20403;-57
2022/05/24 01:18:14;;;;;;;7.83;4.90;;;17.10;99.90;;;;;;4989907;28;20410;-57
2022/05/24 01:20:44;;;;;;;7.78;3.80;;;17.10;99.90;;;;;;4986900;28;20912;-59
2022/05/24 01:23:28;;;;;;;7.40;4.10;;;17.10;99.90;;;;;;4989807;28;20394;-58
2022/05/24 01:26:18;;;;;;;6.53;4.10;;;17.10;99.90;;;;;;4986323;28;20464;-58
2022/05/24 01:28:51;;;;;;;7.47;4.30;;;17.10;99.90;;;;;;4988012;28;20390;-59
2022/05/24 01:31:18;;;;;;;6.93;4.32;;;17.10;99.90;;;;;;4988354;28;20441;-59
2022/05/24 01:36:31;;;;;;;7.77;4.40;;;17.00;99.90;;;;;;4989774;28;20871;-59
2022/05/24 01:39:00;;;;;;;7.53;4.50;;;17.10;99.90;;;;;;4988690;28;20438;-59
2022/05/24 01:41:51;;;;;;;7.00;4.13;;;17.20;99.90;;;;;;4989145;28;20444;-58
2022/05/24 01:44:24;;;;;;;6.70;4.20;;;17.10;99.90;;;;;;4981880;28;20406;-60
2022/05/24 01:46:50;;;;;;;6.85;4.20;;;17.00;99.90;;;;;;4988524;28;20402;-60
2022/05/24 01:49:23;;;;;;;7.60;4.13;;;16.90;99.90;;;;;;4989561;28;20481;-60
2022/05/24 01:52:04;;;;;;;6.93;4.38;;;16.80;99.90;;;;;;4988582;28;20418;-58
2022/05/24 01:54:33;;;;;;;7.40;4.40;;;16.70;99.90;;;;;;4989083;28;20868;-59
2022/05/24 01:57:40;;;;;;;7.38;4.43;;;16.70;99.90;;;;;;4988812;28;20477;-58
2022/05/24 02:00:08;;;;;;;7.82;4.70;;;16.70;99.90;;;;;;4988150;28;20430;-58
2022/05/24 02:02:34;;;;;;;8.05;4.80;;;16.80;99.90;;;;;;4986334;28;20959;-55
2022/05/24 02:05:00;;;;;;;8.05;4.50;;;16.70;99.90;;;;;;4988981;28;20489;-59
2022/05/24 02:07:26;;;;;;;8.85;5.05;;;16.60;99.90;;;;;;4989007;28;20820;-59
2022/05/24 02:09:55;;;;;;;8.68;4.93;;;16.60;99.90;;;;;;4970601;28;21215;-59
2022/05/24 02:12:38;;;;;;;8.10;4.90;;;16.50;99.90;;;;;;4989562;28;20399;-59
2022/05/24 02:15:10;;;;;;;8.00;4.70;;;16.40;99.90;;;;;;4988028;28;20392;-59
2022/05/24 02:17:39;;;;;;;8.95;5.30;;;16.40;99.90;;;;;;4986310;28;20893;-56
2022/05/24 02:20:08;;;;;;;7.95;5.07;;;16.40;99.90;;;;;;4989328;28;20402;-59
2022/05/24 02:22:36;;;;;;;8.00;5.00;;;16.40;99.90;;;;;;4988765;28;20395;-55
2022/05/24 02:25:13;;;;;;;8.18;5.20;;;16.40;99.90;;;;;;4993675;28;20404;-59
2022/05/24 02:27:43;;;;;;;8.50;5.00;;;16.30;99.90;;;;;;4990077;28;20406;-58
2022/05/24 02:30:13;;;;;;;9.00;5.00;;;16.30;99.90;;;;;;4993022;28;20434;-59
2022/05/24 02:32:39;;;;;;;8.32;5.00;;;16.30;99.90;;;;;;4990598;28;20402;-59
2022/05/24 02:35:05;;;;;;;11.37;6.13;;;16.30;99.90;;;;;;4992708;28;20424;-58
2022/05/24 02:37:31;;;;;;;8.70;5.70;;;16.30;99.90;;;;;;4992173;28;20402;-58
2022/05/24 02:42:40;;;;;;;9.80;6.10;;;16.30;99.90;;;;;;4991269;28;20490;-58
2022/05/24 02:45:07;;;;;;;10.23;5.90;;;16.30;99.90;;;;;;4992671;28;20907;-58
2022/05/24 02:47:32;;;;;;;10.27;6.00;;;16.30;99.90;;;;;;4992480;28;20939;-58
2022/05/24 02:49:58;;;;;;;9.03;6.13;;;16.30;99.90;;;;;;4992452;28;20386;-57
2022/05/24 02:52:23;;;;;;;10.95;6.60;;;16.30;99.90;;;;;;4992749;28;20463;-58
2022/05/24 02:54:49;;;;;;;10.10;6.10;;;16.30;99.90;;;;;;4991449;28;21084;-59
2022/05/24 02:57:15;;;;;;;9.43;6.00;;;16.30;99.90;;;;;;4989836;28;20405;-58
2022/05/24 02:59:40;;;;;;;13.23;5.30;;;16.20;99.90;;;;;;4991517;28;20469;-58
2022/05/24 03:02:06;;;;;;;9.18;5.60;;;16.10;99.90;;;;;;4992767;28;20749;-58
2022/05/24 03:04:33;;;;;;;9.17;5.63;;;16.20;99.90;;;;;;4974300;28;20394;-58
2022/05/24 03:09:43;;;;;;;10.50;6.22;;;16.40;99.90;;;;;;4986645;28;20418;-59
2022/05/24 03:14:55;;;;;;;9.53;6.00;;;16.30;99.90;;;;;;4971866;28;20395;-58
2022/05/24 03:17:22;;;;;;;10.50;7.30;;;16.30;99.90;;;;;;4972605;28;20479;-59
2022/05/24 03:19:49;;;;;;;10.50;7.40;;;16.20;99.90;;;;;;4970893;28;20436;-59
2022/05/24 03:22:15;;;;;;;12.35;7.65;;;16.00;99.90;;;;;;4972751;28;20388;-59
2022/05/24 03:24:41;;;;;;;11.60;8.05;;;16.10;99.90;;;;;;4954807;28;20456;-59
2022/05/24 03:27:11;;;;;;;12.90;8.25;;;16.10;99.90;;;;;;4972377;28;20396;-59
2022/05/24 03:29:38;;;;;;;12.30;8.05;;;16.10;99.90;;;;;;4969609;28;20467;-55
2022/05/24 03:32:06;;;;;;;11.40;7.50;;;16.10;99.90;;;;;;4972168;28;20820;-58
2022/05/24 03:34:31;;;;;;;12.20;7.70;;;16.10;99.90;;;;;;4970814;28;20393;-57
2022/05/24 03:36:57;;;;;;;10.40;6.97;;;16.20;99.90;;;;;;4971187;28;20399;-58
2022/05/24 03:39:22;;;;;;;10.80;6.93;;;16.30;99.90;;;;;;4972314;28;20404;-58
2022/05/24 03:41:48;;;;;;;10.47;6.63;;;16.20;99.90;;;;;;4971318;28;20506;-59
2022/05/24 03:44:14;;;;;;;11.07;7.28;;;16.30;99.90;;;;;;4971862;28;20393;-58
2022/05/24 03:46:40;;;;;;;13.23;7.43;;;16.30;99.90;;;;;;4971414;28;20392;-58
2022/05/24 03:49:05;;;;;;;11.43;6.50;;;16.30;99.90;;;;;;4971836;28;20882;-57
2022/05/24 03:51:31;;;;;;;10.70;7.37;;;16.30;99.90;;;;;;4971710;28;20415;-56
2022/05/24 03:53:57;;;;;;;9.93;6.90;;;16.40;99.90;;;;;;4971433;28;21048;-56
2022/05/24 03:56:24;;;;;;;11.30;7.10;;;16.40;99.90;;;;;;4971759;28;20764;-56
2022/05/24 03:58:50;;;;;;;10.20;6.70;;;16.40;99.90;;;;;;4971134;28;20769;-56
2022/05/24 04:01:16;;;;;;;10.25;6.50;;;16.40;99.90;;;;;;4969094;28;20687;-57
2022/05/24 04:03:41;;;;;;;10.35;6.35;;;16.40;99.90;;;;;;4970657;28;20410;-58
2022/05/24 04:06:07;;;;;;;10.30;6.70;;;16.30;99.90;;;;;;4971396;28;20490;-59
2022/05/24 04:08:33;;;;;;;11.68;6.97;;;16.30;99.90;;;;;;4971144;28;20447;-59
2022/05/24 04:11:07;;;;;;;9.30;6.10;;;16.40;99.90;;;;;;4987902;28;20438;-58
2022/05/24 04:13:34;;;;;;;11.47;5.60;;;16.40;99.90;;;;;;4991429;28;20395;-59
2022/05/24 04:16:00;;;;;;;9.10;5.70;;;16.40;99.90;;;;;;4991461;28;20490;-59
2022/05/24 04:18:26;;;;;;;9.70;5.30;;;16.40;99.90;;;;;;4990352;28;20417;-58
2022/05/24 04:20:52;;;;;;;7.38;5.20;;;16.40;99.90;;;;;;4985149;28;20418;-59
2022/05/24 04:23:19;;;;;;;7.70;5.07;;;16.30;99.90;;;;;;5005735;28;20405;-59
2022/05/24 04:25:46;;;;;;;10.23;5.30;;;16.40;99.90;;;;;;4990737;28;20477;-59
2022/05/24 04:28:12;;;;;;;11.13;5.40;;;16.40;99.90;;;;;;4991369;28;20454;-59
2022/05/24 04:30:38;;;;;;;8.25;4.78;;;16.50;99.90;;;;;;4990180;28;20411;-55
2022/05/24 04:33:04;;;;;;;7.28;3.90;;;16.50;99.90;;;;;;4991354;28;20402;-59
2022/05/24 04:35:29;;;;;;;6.67;3.40;;;16.50;99.90;;;;;;4989929;28;20402;-61
2022/05/24 04:37:55;;;;;;;6.63;3.22;;;16.60;99.90;;;;;;4990814;28;20413;-59
2022/05/24 04:42:18;;;;;;;6.50;3.30;;;16.80;99.90;;;;;;4989963;28;20488;-60
2022/05/24 04:43:07;;;;;;;5.93;2.85;;;17.10;99.90;;;;;;4989633;28;20851;-58
2022/05/24 04:45:32;;;;;;;7.85;3.00;;;17.30;18.20;;;;;;4978470;28;20410;-58
2022/05/24 04:47:58;;;;;;;8.33;3.10;;;17.30;24.50;;;;;;4988948;28;20425;-57
2022/05/24 04:50:23;;;;;;;7.10;2.80;;;17.40;4.90;;;;;;4990136;28;20484;-57
2022/05/24 04:52:49;;;;;;;7.00;2.70;;;17.40;1.00;;;;;;4989644;28;21275;-57
2022/05/24 04:55:15;;;;;;;6.57;2.63;;;17.40;1.00;;;;;;4990165;28;20449;-57
2022/05/24 04:57:41;;;;;;;5.22;2.40;;;17.30;1.00;;;;;;4989227;28;20441;-58
2022/05/24 05:00:13;;;;;;;5.10;2.30;;;17.20;1.00;;;;;;4989566;28;20426;-58
2022/05/24 05:02:39;;;;;;;6.30;2.47;;;17.20;1.00;;;;;;4998799;28;20450;-57
2022/05/24 05:05:05;;;;;;;5.80;2.30;;;17.30;1.00;;;;;;4991027;28;20399;-58
2022/05/24 05:07:31;;;;;;;5.90;2.40;;;17.30;1.00;;;;;;4988125;28;20406;-58
2022/05/24 05:09:57;;;;;;;6.13;2.30;;;17.30;18.60;;;;;;4988572;28;21007;-58
2022/05/24 05:12:25;;;;;;;6.20;2.47;;;17.30;1.00;;;;;;4991214;28;20394;-58
2022/05/24 05:14:50;;;;;;;7.30;2.40;;;17.40;1.00;;;;;;4988773;28;20947;-58
2022/05/24 05:17:18;;;;;;;7.70;2.33;;;17.40;1.00;;;;;;4990005;28;20546;-58
2022/05/24 05:19:45;;;;;;;6.40;2.20;;;17.60;1.00;;;;;;4991047;28;20413;-59
2022/05/24 05:22:12;;;;;;;6.10;2.30;;;17.70;1.00;;;;;;4988592;28;20430;-58
2022/05/24 05:24:37;;;;;;;5.45;2.28;;;17.90;1.00;;;;;;4992001;28;20424;-55
2022/05/24 05:27:04;;;;;;;6.90;2.20;;;18.00;1.00;;;;;;4993033;28;20870;-57
2022/05/24 05:32:22;;;;;;;7.28;2.45;;;18.00;1.00;;;;;;5003132;28;20929;-58
2022/05/24 05:34:49;;;;;;;5.90;2.35;;;17.80;1.00;;;;;;4988339;28;20399;-57
2022/05/24 05:37:15;;;;;;;5.60;2.30;;;17.80;1.00;;;;;;4994322;28;20863;-58
2022/05/24 05:39:41;;;;;;;6.68;2.67;;;18.10;1.00;;;;;;5009176;28;20400;-57
2022/05/24 05:42:07;;;;;;;6.03;2.45;;;18.20;1.00;;;;;;4998019;28;20434;-58
2022/05/24 05:44:33;;;;;;;5.65;2.40;;;18.30;1.00;;;;;;4990336;28;20397;-57
2022/05/24 05:46:58;;;;;;;7.53;2.33;;;18.40;1.00;;;;;;4989351;28;20530;-58
2022/05/24 05:49:24;;;;;;;5.68;2.70;;;18.40;1.00;;;;;;4989853;28;20382;-57
2022/05/24 05:51:50;;;;;;;5.27;2.30;;;18.50;1.00;;;;;;4988888;28;20859;-57
2022/05/24 05:54:15;;;;;;;5.20;2.72;;;18.60;1.00;;;;;;4989468;28;21185;-58
2022/05/24 05:56:41;;;;;;;5.53;2.50;;;18.40;1.00;;;;;;4989071;28;20378;-57
2022/05/24 05:59:07;;;;;;;8.13;3.10;;;18.30;1.00;;;;;;4988801;28;20756;-58
2022/05/24 06:01:33;;;;;;;6.30;2.70;;;18.10;1.00;;;;;;4993864;28;20419;-57
2022/05/24 06:04:00;;;;;;;7.47;2.85;;;18.10;1.00;;;;;;4985363;28;20489;-56
2022/05/24 06:06:30;;;;;;;6.40;2.83;;;18.10;1.00;;;;;;4986725;28;20560;-58
2022/05/24 06:08:56;;;;;;;7.30;2.60;;;18.70;1.00;;;;;;4989181;28;20557;-57
2022/05/24 06:11:23;;;;;;;5.80;1.93;;;20.10;99.90;;;;;;4989948;28;20418;-58
2022/05/24 06:13:49;;;;;;;6.10;2.00;;;20.80;99.90;;;;;;4989127;28;20410;-58
2022/05/24 06:16:16;;;;;;;6.03;2.10;;;20.90;99.90;;;;;;4989651;28;20386;-57
2022/05/24 06:18:42;;;;;;;6.35;2.30;;;20.80;1.00;;;;;;4988921;28;20486;-57
2022/05/24 06:21:08;;;;;;;6.20;2.30;;;20.40;1.00;;;;;;4989273;28;20505;-57
2022/05/24 06:23:33;;;;;;;5.68;2.33;;;20.10;99.90;;;;;;4989886;28;20465;-58
2022/05/24 06:26:00;;;;;;;5.57;2.57;;;19.90;99.90;;;;;;4988927;28;20440;-58
2022/05/24 06:28:26;;;;;;;6.50;2.23;;;19.50;1.00;;;;;;4989927;28;20391;-58
2022/05/24 06:30:52;;;;;;;6.03;2.30;;;19.40;99.90;;;;;;4988986;28;20407;-58
2022/05/24 06:33:18;;;;;;;5.40;2.40;;;19.40;1.00;;;;;;4989758;28;20945;-58
2022/05/24 06:35:44;;;;;;;7.20;2.70;;;19.30;1.00;;;;;;4988892;28;20465;-58
2022/05/24 06:38:10;;;;;;;6.20;2.65;;;19.20;99.90;;;;;;4989587;28;20871;-58
2022/05/24 06:40:35;;;;;;;7.00;2.80;;;19.00;1.00;;;;;;4971975;28;20426;-58
2022/05/24 06:43:02;;;;;;;6.90;2.90;;;18.90;1.00;;;;;;4988955;28;21267;-58
2022/05/24 06:45:29;;;;;;;7.97;3.30;;;18.90;1.00;;;;;;4989657;28;20390;-58
2022/05/24 06:47:54;;;;;;;8.55;3.13;;;18.60;99.90;;;;;;4988759;28;20398;-58
2022/05/24 06:50:20;;;;;;;7.20;3.10;;;18.40;1.00;;;;;;4989640;28;20386;-58
2022/05/24 06:52:47;;;;;;;8.13;3.10;;;18.30;1.00;;;;;;4989189;28;20386;-57
2022/05/24 06:55:13;;;;;;;5.22;2.22;;;18.20;1.00;;;;;;4989764;28;20478;-58
2022/05/24 06:57:39;;;;;;;7.20;1.00;;;17.60;99.90;;;;;;4989595;28;20387;-54
2022/05/24 07:03:04;;;;;;;6.20;1.20;;;14.10;1.00;;;;;;4988851;28;20381;-55
2022/05/24 07:05:29;;;;;;;8.35;1.00;;;13.30;97.60;;;;;;4989122;28;20382;-54
2022/05/24 07:07:56;;;;;;;5.50;1.00;;;13.20;99.90;;;;;;4988529;28;20473;-56
2022/05/24 07:10:23;;;;;;;4.20;0.95;;;13.20;99.90;;;;;;4992795;28;20413;-56
2022/05/24 07:12:58;;;;;;;5.70;1.00;;;13.30;99.90;;;;;;4992355;28;20387;-55
2022/05/24 07:15:24;;;;;;;3.90;0.90;;;13.30;99.90;;;;;;4954385;29;20386;-55
2022/05/24 07:17:50;;;;;;;7.13;1.10;;;13.50;99.90;;;;;;4953512;29;20860;-56
2022/05/24 07:20:15;;;;;;;5.80;1.10;;;13.60;45.80;;;;;;4953730;29;20430;-56
2022/05/24 07:22:42;;;;;;;4.75;0.90;;;13.60;81.90;;;;;;4952999;29;20399;-54
2022/05/24 07:25:08;;;;;;;3.92;0.85;;;13.60;76.70;;;;;;4954185;29;20481;-56
2022/05/24 07:27:34;;;;;;;6.90;1.30;;;13.70;35.10;;;;;;4953490;29;20477;-56
2022/05/24 07:29:59;;;;;;;4.93;0.87;;;13.70;1.10;;;;;;4953226;29;20390;-56
2022/05/24 07:32:25;;;;;;;5.22;0.80;;;13.90;53.20;;;;;;4954201;29;20390;-56
2022/05/24 07:34:50;;;;;;;6.67;1.30;;;13.90;45.30;;;;;;4953026;29;20708;-56
2022/05/24 07:37:17;;;;;;;5.00;0.90;;;14.10;16.30;;;;;;4953538;29;20445;-56
2022/05/24 07:39:43;;;;;;;5.53;1.00;;;14.30;1.00;;;;;;4952896;29;20876;-55
2022/05/24 07:47:37;;;;;;;3.80;0.82;;;14.70;1.00;;;;;;4953909;29;20381;-56
2022/05/24 07:50:04;;;;;;;4.70;0.90;;;14.80;1.00;;;;;;4952823;29;20394;-55
2022/05/24 07:52:30;;;;;;;4.10;0.93;;;14.80;1.00;;;;;;4953764;29;20396;-56
2022/05/24 07:54:55;;;;;;;3.70;0.70;;;15.00;1.00;;;;;;4952913;29;20394;-56
2022/05/24 07:57:21;;;;;;;5.40;0.90;;;14.90;1.00;;;;;;4953251;29;20468;-56
2022/05/24 07:59:47;;;;;;;5.20;1.10;;;14.80;1.00;;;;;;4952907;29;20402;-56
2022/05/24 08:02:19;;;;;;;6.88;1.00;;;14.80;1.00;;;;;;4953228;29;20422;-56
2022/05/24 08:04:45;;;;;;;4.20;1.00;;;14.80;1.00;;;;;;4952537;29;20383;-56
2022/05/24 08:07:11;;;;;;;5.00;0.70;;;14.90;1.00;;;;;;4952834;29;20393;-57
2022/05/24 08:09:37;;;;;;;4.80;0.90;;;15.00;1.00;;;;;;4957194;28;20408;-56
2022/05/24 08:12:03;;;;;;;4.70;0.90;;;14.90;1.00;;;;;;4971472;28;20933;-56
2022/05/24 08:14:28;;;;;;;5.03;0.90;;;15.40;1.00;;;;;;4998650;28;20389;-56
2022/05/24 08:16:55;;;;;;;4.40;0.90;;;15.30;1.00;;;;;;5010688;28;20392;-58
2022/05/24 08:19:21;;;;;;;4.30;0.90;;;15.90;1.00;;;;;;5011518;28;20404;-57
2022/05/24 08:21:47;;;;;;;4.20;0.70;;;16.30;99.90;;;;;;5009750;28;20758;-56
2022/05/24 08:24:13;;;;;;;5.68;0.70;;;16.30;99.90;;;;;;5010868;28;20413;-57
2022/05/24 08:26:39;;;;;;;4.53;0.80;;;16.00;99.90;;;;;;5011191;28;20910;-56
2022/05/24 08:29:04;;;;;;;5.70;0.93;;;15.90;99.90;;;;;;5010503;28;20472;-57
2022/05/24 08:31:30;;;;;;;4.20;0.80;;;16.50;99.90;;;;;;5011263;28;20389;-56
2022/05/24 08:33:56;;;;;;;5.95;0.77;;;16.40;99.90;;;;;;5010264;28;20491;-57
2022/05/24 08:36:21;;;;;;;4.00;0.70;;;16.20;1.00;;;;;;5011085;28;20384;-57
2022/05/24 08:38:47;;;;;;;4.53;0.60;;;16.10;1.00;;;;;;5009938;28;20400;-56
2022/05/24 08:41:35;;;;;;;4.00;0.80;;;15.80;1.00;;;;;;5010885;28;20482;-57
2022/05/24 08:50:03;;;;;;;4.45;0.80;;;16.10;1.00;;;;;;5010054;28;20607;-57
2022/05/24 08:52:36;;;;;;;4.70;0.70;;;16.20;1.00;;;;;;5010830;28;20846;-57
2022/05/24 08:55:02;;;;;;;5.70;0.90;;;16.40;1.00;;;;;;5009972;28;20509;-57
2022/05/24 08:57:45;;;;;;;4.00;0.70;;;16.70;1.00;;;;;;5011089;28;20393;-57
2022/05/24 09:00:16;;;;;;;4.50;0.75;;;17.00;99.90;;;;;;5010631;28;20401;-57
2022/05/24 09:02:45;;;;;;;5.30;0.77;;;17.30;99.90;;;;;;5010251;28;20869;-54
2022/05/24 09:05:36;;;;;;;4.45;0.85;;;17.40;99.90;;;;;;5010605;28;20438;-57
2022/05/24 09:08:16;;;;;;;4.60;0.60;;;17.60;99.90;;;;;;5009520;28;20485;-56
2022/05/24 09:10:55;;;;;;;6.20;0.70;;;17.20;99.90;;;;;;5010180;28;20574;-54
2022/05/24 09:13:58;;;;;;;4.00;0.70;;;17.50;99.90;;;;;;5006142;28;20764;-57
2022/05/24 09:16:34;;;;;;;4.60;0.70;;;17.50;57.50;;;;;;4990594;28;20374;-57
2022/05/24 09:19:24;;;;;;;4.40;0.80;;;17.90;58.50;;;;;;4990087;28;20414;-57
2022/05/24 09:21:53;;;;;;;4.10;0.60;;;17.90;1.70;;;;;;4989748;28;20422;-57
2022/05/24 09:24:33;;;;;;;5.28;0.90;;;18.10;1.00;;;;;;4990277;28;20867;-57
2022/05/24 09:27:03;;;;;;;4.07;0.65;;;;;;;;;;4989576;28;20474;-58
2022/05/24 09:29:31;;;;;;;4.50;0.70;;;20.40;99.90;;;;;;4990581;28;20509;-58
2022/05/24 09:31:59;;;;;;;5.35;0.80;;;21.20;1.00;;;;;;4989339;28;20888;-58
2022/05/24 09:34:33;;;;;;;5.87;0.87;;;22.40;1.00;;;;;;4989589;28;20732;-58
2022/05/24 09:37:00;;;;;;;5.80;1.00;;;21.20;99.90;;;;;;4989667;28;20406;-58
2022/05/24 09:39:30;;;;;;;4.85;0.80;;;21.30;99.90;;;;;;4990369;28;20907;-58
2022/05/24 09:42:28;;;;;;;4.40;0.73;;;22.00;99.90;;;;;;4989569;28;20419;-59
2022/05/24 09:45:09;;;;;;;4.35;0.70;;;21.70;99.90;;;;;;4982178;28;20406;-59
2022/05/24 09:47:43;;;;;;;6.60;1.10;;;21.10;99.90;;;;;;4990287;28;20383;-58
2022/05/24 09:50:18;;;;;;;5.00;0.70;;;20.90;99.90;;;;;;4990152;28;20398;-59
2022/05/24 09:53:06;;;;;;;4.70;0.90;;;22.00;1.00;;;;;;4989814;28;20382;-55
2022/05/24 09:55:52;;;;;;;4.40;0.90;;;21.80;99.90;;;;;;4990189;28;20382;-59
2022/05/24 09:58:30;;;;;;;5.60;0.90;;;21.60;99.90;;;;;;4990104;28;20453;-59
2022/05/24 10:01:01;;;;;;;4.30;0.80;;;22.30;99.90;;;;;;4989349;28;20518;-59
2022/05/24 10:03:29;;;;;;;5.07;0.70;;;21.50;99.90;;;;;;4990132;28;20422;-59
2022/05/24 10:06:03;;;;;;;5.00;0.80;;;21.90;99.90;;;;;;4989488;28;20386;-59
2022/05/24 10:08:33;;;;;;;4.50;0.70;;;22.40;99.90;;;;;;4990233;28;20401;-59
2022/05/24 10:10:59;;;;;;;4.80;0.80;;;22.00;99.90;;;;;;4989065;28;20502;-59
2022/05/24 10:13:38;;;;;;;4.82;0.90;;;21.80;99.90;;;;;;4990468;28;20485;-59
2022/05/24 10:16:18;;;;;;;4.30;0.80;;;22.00;99.90;;;;;;4989887;28;20374;-59
2022/05/24 10:18:55;;;;;;;5.28;0.90;;;22.00;99.90;;;;;;4989351;28;20375;-55
2022/05/24 10:21:45;;;;;;;6.63;0.90;;;22.30;99.90;;;;;;4989981;28;20418;-58
2022/05/24 10:24:42;;;;;;;5.30;0.80;;;22.70;99.90;;;;;;4990265;28;20378;-59
2022/05/24 10:27:29;;;;;;;4.90;1.00;;;22.60;99.90;;;;;;4989546;28;20382;-59
2022/05/24 10:30:19;;;;;;;4.60;0.90;;;22.20;99.90;;;;;;4989247;28;20395;-58
2022/05/24 10:39:25;;;;;;;4.50;1.05;;;22.30;99.90;;;;;;4990030;28;20386;-59
2022/05/24 10:42:17;;;;;;;4.70;0.90;;;22.30;99.90;;;;;;4988896;28;20458;-59
2022/05/24 10:44:49;;;;;;;5.70;0.90;;;22.30;99.90;;;;;;4991722;28;20385;-55
2022/05/24 10:47:24;;;;;;;4.72;0.80;;;22.30;99.90;;;;;;4993590;28;20401;-59
2022/05/24 10:50:01;;;;;;;4.57;0.90;;;22.00;99.90;;;;;;4992390;28;20941;-58
2022/05/24 10:52:33;;;;;;;4.63;0.73;;;21.80;99.90;;;;;;4993478;28;20513;-58
2022/05/24 10:55:12;;;;;;;5.50;1.00;;;21.80;99.90;;;;;;4992591;28;20879;-58
2022/05/24 10:57:49;;;;;;;5.65;1.00;;;21.50;99.90;;;;;;4993305;28;20390;-58
2022/05/24 11:00:23;;;;;;;4.20;0.77;;;21.40;99.90;;;;;;4993167;28;20868;-58
2022/05/24 11:03:10;;;;;;;5.05;0.90;;;21.10;99.90;;;;;;4992496;28;20402;-58
2022/05/24 11:05:37;;;;;;;4.57;1.00;;;21.20;99.90;;;;;;4993229;28;20378;-58
2022/05/24 11:08:26;;;;;;;4.80;0.98;;;20.30;99.90;;;;;;4991979;28;20490;-58
2022/05/24 11:10:54;;;;;;;7.45;1.02;;;20.20;99.90;;;;;;4977835;28;20798;-58
2022/05/24 11:13:42;;;;;;;4.70;1.00;;;20.40;99.90;;;;;;4973512;28;20874;-57
2022/05/24 11:16:14;;;;;;;5.65;0.88;;;20.80;99.90;;;;;;4973413;28;20487;-58
2022/05/24 11:18:41;;;;;;;5.00;0.90;;;21.10;99.90;;;;;;4973119;28;20451;-58
2022/05/24 11:21:28;;;;;;;6.50;1.10;;;21.40;99.90;;;;;;4972688;28;20431;-57
2022/05/24 11:24:13;;;;;;;4.30;0.90;;;21.20;99.90;;;;;;4972520;28;20393;-57
2022/05/24 11:26:48;;;;;;;4.70;1.10;;;21.10;99.90;;;;;;4973242;28;20400;-58
2022/05/24 11:29:33;;;;;;;4.63;0.90;;;21.10;99.90;;;;;;4973602;28;20396;-59
2022/05/24 11:32:06;;;;;;;4.30;0.80;;;21.10;99.90;;;;;;4972615;28;20492;-58
2022/05/24 11:34:50;;;;;;;5.50;0.90;;;21.40;99.90;;;;;;4973416;28;20953;-58
2022/05/24 11:37:32;;;;;;;5.97;1.20;;;21.50;99.90;;;;;;4973744;28;20387;-58
2022/05/24 11:40:30;;;;;;;4.70;1.00;;;21.00;99.90;;;;;;4971015;28;20409;-58
2022/05/24 11:43:16;;;;;;;4.30;0.80;;;21.20;99.90;;;;;;4972284;28;20459;-58
2022/05/24 11:45:56;;;;;;;4.60;0.90;;;20.10;99.90;;;;;;4933110;28;20414;-58
2022/05/24 11:48:37;;;;;;;4.40;0.82;;;20.20;99.90;;;;;;4972934;28;20849;-56
2022/05/24 11:51:39;;;;;;;5.10;0.82;;;20.50;99.90;;;;;;4972212;28;20428;-57
2022/05/24 11:54:28;;;;;;;4.93;1.10;;;21.00;99.90;;;;;;4893263;29;20406;-57
2022/05/24 11:57:00;;;;;;;5.60;0.93;;;21.10;99.90;;;;;;4967655;28;20400;-58
2022/05/24 11:59:43;;;;;;;5.20;1.20;;;21.20;99.90;;;;;;4972664;28;20393;-58
2022/05/24 12:02:29;;;;;;;5.67;1.40;;;21.10;99.90;;;;;;4972255;28;20496;-58
2022/05/24 12:07:58;;;;;;;5.90;1.00;;;21.60;99.90;;;;;;4972674;28;20467;-58
2022/05/24 12:10:24;;;;;;;4.40;0.85;;;22.00;99.90;;;;;;4982933;28;20814;-58
2022/05/24 12:13:09;;;;;;;4.40;1.00;;;22.40;99.90;;;;;;4990941;28;20426;-58
2022/05/24 12:15:40;;;;;;;4.80;0.90;;;22.40;99.90;;;;;;4952785;29;20960;-58
2022/05/24 12:18:06;;;;;;;4.50;1.00;;;22.50;99.90;;;;;;4952474;29;20398;-58
2022/05/24 12:20:34;;;;;;;4.50;0.90;;;22.40;99.90;;;;;;4953180;29;20424;-58
2022/05/24 12:23:28;;;;;;;4.70;0.90;;;22.60;99.90;;;;;;4952404;29;20390;-58
2022/05/24 12:26:03;;;;;;;6.00;1.10;;;22.20;99.90;;;;;;4952104;29;20401;-58
2022/05/24 12:28:49;;;;;;;4.88;0.90;;;22.30;99.90;;;;;;4953016;29;20386;-58
2022/05/24 12:31:17;;;;;;;4.70;0.90;;;22.40;99.90;;;;;;4953153;29;20401;-58
2022/05/24 12:33:53;;;;;;;5.00;1.00;;;22.10;99.90;;;;;;4952624;29;20537;-56
2022/05/24 12:36:25;;;;;;;5.00;1.00;;;22.40;99.90;;;;;;4952566;29;20401;-58
2022/05/24 12:38:58;;;;;;;5.50;1.00;;;22.80;99.90;;;;;;4952124;29;20748;-55
2022/05/24 12:41:27;;;;;;;5.20;1.05;;;23.10;99.90;;;;;;4952587;29;20418;-58
2022/05/24 12:43:57;;;;;;;4.80;1.00;;;23.50;99.90;;;;;;4950392;29;20768;-58
2022/05/24 12:46:26;;;;;;;5.70;0.90;;;23.10;99.90;;;;;;4952767;29;20382;-58
2022/05/24 12:49:08;;;;;;;5.82;1.20;;;22.60;99.90;;;;;;4951868;29;20848;-58
2022/05/24 12:51:36;;;;;;;7.80;1.20;;;22.20;99.90;;;;;;4952551;29;20489;-58
2022/05/24 12:54:17;;;;;;;5.63;1.10;;;21.90;99.90;;;;;;4951736;29;20443;-58
2022/05/24 12:57:05;;;;;;;6.50;1.00;;;21.90;99.90;;;;;;4952057;29;20473;-58
2022/05/24 12:59:40;;;;;;;4.47;1.00;;;21.90;99.90;;;;;;4952336;29;20394;-58
2022/05/24 13:02:31;;;;;;;6.07;1.10;;;21.80;99.90;;;;;;4951817;29;20422;-58
2022/05/24 13:05:21;;;;;;;5.93;1.45;;;21.70;99.90;;;;;;4947504;29;20469;-58
2022/05/24 13:07:58;;;;;;;4.90;1.00;;;21.60;99.90;;;;;;4951748;28;20405;-54
2022/05/24 13:10:26;;;;;;;5.90;1.17;;;21.50;99.90;;;;;;4962525;28;20417;-58
2022/05/24 13:13:17;;;;;;;5.80;1.13;;;21.50;99.90;;;;;;4970797;28;20432;-58
2022/05/24 13:15:50;;;;;;;4.73;1.00;;;21.40;99.90;;;;;;4964063;28;20444;-58
2022/05/24 13:18:25;;;;;;;4.60;1.00;;;21.00;99.90;;;;;;4971639;28;20408;-58
2022/05/24 13:20:58;;;;;;;5.30;1.00;;;21.20;99.90;;;;;;4970762;28;20535;-58
2022/05/24 13:23:38;;;;;;;5.63;1.38;;;21.20;99.90;;;;;;4971366;28;20400;-58
2022/05/24 13:26:03;;;;;;;4.60;0.90;;;20.80;99.90;;;;;;4970661;28;20380;-56
2022/05/24 13:28:33;;;;;;;8.10;1.20;;;20.80;99.90;;;;;;4971258;28;20398;-57
2022/05/24 13:33:55;;;;;;;5.40;1.20;;;21.50;99.90;;;;;;4970462;28;20443;-57
2022/05/24 13:36:29;;;;;;;4.60;1.10;;;22.20;99.90;;;;;;4971358;28;20388;-58
2022/05/24 13:39:04;;;;;;;4.90;1.30;;;22.70;99.90;;;;;;4970342;28;20467;-57
2022/05/24 13:41:39;;;;;;;5.78;1.30;;;22.20;99.90;;;;;;4970907;28;20428;-57
2022/05/24 13:44:30;;;;;;;4.70;1.20;;;22.00;99.90;;;;;;4970479;28;20840;-58
2022/05/24 13:47:05;;;;;;;5.25;1.17;;;21.60;99.90;;;;;;4970250;28;20384;-57
2022/05/24 13:49:32;;;;;;;5.90;1.25;;;21.50;99.90;;;;;;4971085;28;20393;-57